Strona główna
METAR-TAF:

METAR-TAF

Lotnisko :

Morristown, New Jersey, Stany Zjednoczone

Szerokość geograficzna: 40-48N, Długość geograficzna: 074-25W, wysokość: 57 m

Aktualna obserwacja pogody

Raport powstał 24 minut temu, godzina 11:45 UTC
Wiatr 5 kt od wschodnio-północny wschód
Temperatura 21°C
Wilgotność 100%
Ciśnienie 1010 hPa
Widzialność: 3.2 km
Przerywane chmury na wysokości 200 ft
Przerywane chmury na wysokości 4900 ft
Zachmurzenie całkowite na wysokości 9500 ft
słaby deszcz

METAR: KMMU 251145Z 07005KT 2SM -RA BKN002 BKN049 OVC095 21/21 A2982 RMK LTG VC DSNT E SE

czas: 08:09 (12:09 UTC)


TAF: brakujący

Obserwacja i prognoza pogody dla ponad 4000 lotnisk (raport METAR i TAF).

Dostępne stacje oznaczono żółtymi i czerwonymi punktami na mapie.

Najedź kursorem aby zobaczyć nazwę stacji.

Kliknij aby zobaczyć obserwacje i prognozy pogody.

Aby zmienić mapę: kliknij na zielony przycisk z czarnym krzyżykiem, aby powiększyć; na zielony przycisk z myślnikiem, aby pomniejszyć; na zielone strzałki, aby przejść do map sąsiednich.


METAR-TAF: